UAE24 EGPH-OMDB
Flight info
| Callsign | UAE24 |
|---|---|
| Flight time | N/A |
| Altitude | 37000 |
| Route | TLA6C TLA Y96 OTBUN DCT NATEB DCT GODOS DCT BERGI DCT DOJOH/N0480F390 DCT DODEN DCT NEGIX DCT DINKU M867 XERUM DCT BAVAX DCT RADIZ DCT MODRO DCT DARZA DCT PINDO DCT PAXIS Y707 OBRAN L321 REXUM M872 SEMRU/N0485F410 M872 BDB Y214 RAPMA DCT KUVSO DCT KATIT DCT PEKEM M628 RIGIL G783 ELUDA/N0505F350 G783 ASPED Q308 KIPOK Q568 IMPED IMPED3B |
| Aircraft | A359/H-SDE2E3GHIJ1J3J4J5LM1ORWXY/LB1D1 |
Departure
| Time | N/A |
|---|---|
| Airport | Edinburgh Airport (EGPH) |
Arrival
| Time | 2026-05-04 19:22 |
|---|---|
| Airport | Dubai International Airport (OMDB) |
| Time | Latitude | Longitude | Altitude | Speed | Heading |
|---|---|---|---|---|---|
| 2026-05-04 16:07 | 30.45093 | 29.94381 | 39077 ft | 528 kts | 155° |
| 2026-05-04 16:08 | 30.32727 | 30.03561 | 39072 ft | 528 kts | 155° |
| 2026-05-04 16:09 | 30.17253 | 30.15009 | 39082 ft | 527 kts | 156° |
| 2026-05-04 16:10 | 30.04926 | 30.24098 | 39067 ft | 526 kts | 156° |
| 2026-05-04 16:11 | 29.92563 | 30.33184 | 39067 ft | 526 kts | 156° |
| 2026-05-04 16:12 | 29.74107 | 30.46701 | 39060 ft | 524 kts | 156° |
| 2026-05-04 16:13 | 29.61812 | 30.55673 | 39066 ft | 523 kts | 156° |
| 2026-05-04 16:14 | 29.49541 | 30.64599 | 39067 ft | 522 kts | 156° |
| 2026-05-04 16:16 | 29.35231 | 30.74977 | 39063 ft | 520 kts | 156° |
| 2026-05-04 16:17 | 29.19946 | 30.86024 | 39068 ft | 519 kts | 157° |
| 2026-05-04 16:18 | 29.07754 | 30.94807 | 39068 ft | 518 kts | 157° |
| 2026-05-04 16:19 | 28.92526 | 31.05743 | 39072 ft | 516 kts | 157° |
| 2026-05-04 16:20 | 28.77327 | 31.16619 | 39076 ft | 515 kts | 157° |
| 2026-05-04 16:21 | 28.68570 | 31.23790 | 39082 ft | 532 kts | 142° |
| 2026-05-04 16:22 | 28.63444 | 31.29962 | 39086 ft | 536 kts | 140° |
| 2026-05-04 16:23 | 28.48511 | 31.48901 | 39084 ft | 535 kts | 140° |
| 2026-05-04 16:25 | 28.33551 | 31.67612 | 39082 ft | 533 kts | 141° |
| 2026-05-04 16:26 | 28.16117 | 31.89317 | 39077 ft | 531 kts | 141° |
| 2026-05-04 16:28 | 28.03795 | 32.04862 | 39072 ft | 539 kts | 134° |
| 2026-05-04 16:29 | 27.90784 | 32.31192 | 39030 ft | 549 kts | 126° |
| 2026-05-04 16:31 | 27.81628 | 32.50112 | 39019 ft | 549 kts | 126° |
| 2026-05-04 16:32 | 27.70582 | 32.72802 | 38993 ft | 549 kts | 127° |
| 2026-05-04 16:33 | 27.63229 | 32.87840 | 38990 ft | 549 kts | 127° |
| 2026-05-04 16:34 | 27.57699 | 32.99111 | 38988 ft | 549 kts | 127° |
| 2026-05-04 16:35 | 27.46580 | 33.21695 | 38986 ft | 548 kts | 127° |
| 2026-05-04 16:36 | 27.41030 | 33.32921 | 38990 ft | 548 kts | 128° |
| 2026-05-04 16:37 | 27.35463 | 33.44152 | 38971 ft | 547 kts | 128° |
| 2026-05-04 16:38 | 27.28026 | 33.59105 | 38949 ft | 547 kts | 128° |
| 2026-05-04 16:39 | 27.18742 | 33.77718 | 38938 ft | 547 kts | 128° |
| 2026-05-04 16:40 | 27.12749 | 33.93665 | 38943 ft | 556 kts | 120° |
| 2026-05-04 16:41 | 27.05618 | 34.13791 | 38933 ft | 555 kts | 120° |
| 2026-05-04 16:43 | 26.98439 | 34.33821 | 39094 ft | 555 kts | 120° |
| 2026-05-04 16:43 | 26.95540 | 34.41869 | 39515 ft | 553 kts | 120° |
| 2026-05-04 16:43 | 26.94113 | 34.45826 | 39706 ft | 552 kts | 120° |
| 2026-05-04 16:44 | 26.88343 | 34.61785 | 40417 ft | 551 kts | 120° |
| 2026-05-04 16:45 | 26.85459 | 34.69740 | 40753 ft | 550 kts | 120° |
| 2026-05-04 16:46 | 26.81140 | 34.81622 | 40924 ft | 549 kts | 120° |
| 2026-05-04 16:46 | 26.78270 | 34.89497 | 40926 ft | 548 kts | 120° |
| 2026-05-04 16:47 | 26.72495 | 35.05317 | 40924 ft | 547 kts | 121° |
| 2026-05-04 16:48 | 26.66744 | 35.20994 | 40919 ft | 546 kts | 121° |
| 2026-05-04 16:49 | 26.60971 | 35.36677 | 40920 ft | 545 kts | 121° |
| 2026-05-04 16:50 | 26.55178 | 35.52336 | 40915 ft | 544 kts | 121° |
| 2026-05-04 16:51 | 26.50720 | 35.63971 | 40915 ft | 543 kts | 122° |
| 2026-05-04 16:52 | 26.44769 | 35.79452 | 40912 ft | 544 kts | 122° |
| 2026-05-04 16:53 | 26.40304 | 35.91077 | 40909 ft | 543 kts | 122° |
| 2026-05-04 16:54 | 26.34340 | 36.06551 | 40909 ft | 542 kts | 122° |
| 2026-05-04 16:55 | 26.25411 | 36.29604 | 40893 ft | 539 kts | 122° |
| 2026-05-04 16:56 | 26.17904 | 36.48701 | 40888 ft | 533 kts | 127° |
| 2026-05-04 16:57 | 26.12666 | 36.59585 | 40889 ft | 529 kts | 128° |
| 2026-05-04 16:58 | 26.05575 | 36.73892 | 40902 ft | 528 kts | 128° |
| 2026-05-04 17:00 | 25.94975 | 36.95290 | 40892 ft | 526 kts | 128° |
| 2026-05-04 17:01 | 25.86745 | 37.11839 | 40875 ft | 524 kts | 128° |
| 2026-05-04 17:02 | 25.79690 | 37.25977 | 40899 ft | 523 kts | 128° |
| 2026-05-04 17:03 | 25.74409 | 37.36590 | 40892 ft | 522 kts | 128° |
| 2026-05-04 17:03 | 25.69149 | 37.47143 | 40902 ft | 523 kts | 128° |
| 2026-05-04 17:04 | 25.62082 | 37.61276 | 40917 ft | 523 kts | 127° |
| 2026-05-04 17:05 | 25.55043 | 37.75307 | 40911 ft | 524 kts | 127° |
| 2026-05-04 17:06 | 25.49703 | 37.85924 | 40903 ft | 525 kts | 127° |
| 2026-05-04 17:07 | 25.44972 | 37.95311 | 40897 ft | 525 kts | 127° |
| 2026-05-04 17:07 | 25.40813 | 38.03545 | 40882 ft | 526 kts | 127° |
| 2026-05-04 17:08 | 25.35457 | 38.14131 | 40870 ft | 526 kts | 127° |
| 2026-05-04 17:09 | 25.31886 | 38.21175 | 40883 ft | 526 kts | 127° |
| 2026-05-04 17:09 | 25.28313 | 38.28213 | 40885 ft | 526 kts | 127° |
| 2026-05-04 17:10 | 25.19347 | 38.45826 | 40888 ft | 525 kts | 127° |
| 2026-05-04 17:11 | 25.15771 | 38.52831 | 40897 ft | 525 kts | 127° |
| 2026-05-04 17:11 | 25.12172 | 38.59865 | 41002 ft | 524 kts | 127° |
| 2026-05-04 17:12 | 25.10385 | 38.63344 | 40917 ft | 526 kts | 127° |
| 2026-05-04 17:13 | 25.01364 | 38.80897 | 40911 ft | 522 kts | 127° |
| 2026-05-04 17:14 | 24.94189 | 38.94814 | 40916 ft | 522 kts | 127° |
| 2026-05-04 17:15 | 24.88788 | 39.05245 | 40911 ft | 523 kts | 127° |
| 2026-05-04 17:16 | 24.81575 | 39.19144 | 40909 ft | 522 kts | 127° |
| 2026-05-04 17:17 | 24.74373 | 39.32997 | 40912 ft | 522 kts | 127° |
| 2026-05-04 17:18 | 24.67146 | 39.46846 | 40915 ft | 522 kts | 127° |
| 2026-05-04 17:19 | 24.59923 | 39.60647 | 40928 ft | 522 kts | 127° |
| 2026-05-04 17:20 | 24.54283 | 39.75462 | 40922 ft | 540 kts | 103° |
| 2026-05-04 17:20 | 24.53002 | 39.87794 | 40915 ft | 543 kts | 100° |
| 2026-05-04 17:21 | 24.51508 | 40.04251 | 40914 ft | 542 kts | 101° |
| 2026-05-04 17:22 | 24.50708 | 40.12481 | 40902 ft | 542 kts | 101° |
| 2026-05-04 17:23 | 24.49080 | 40.28963 | 40891 ft | 542 kts | 101° |
| 2026-05-04 17:24 | 24.47854 | 40.41295 | 40897 ft | 542 kts | 101° |
| 2026-05-04 17:25 | 24.46209 | 40.57690 | 40896 ft | 542 kts | 101° |
| 2026-05-04 17:26 | 24.44543 | 40.74129 | 40894 ft | 541 kts | 101° |
| 2026-05-04 17:27 | 24.42443 | 40.94496 | 40898 ft | 540 kts | 101° |
| 2026-05-04 17:28 | 24.40718 | 41.11042 | 40899 ft | 547 kts | 101° |
| 2026-05-04 17:29 | 24.38108 | 41.35835 | 40906 ft | 546 kts | 101° |
| 2026-05-04 17:31 | 24.35896 | 41.56524 | 40904 ft | 546 kts | 101° |
| 2026-05-04 17:32 | 24.33664 | 41.77140 | 40901 ft | 545 kts | 101° |
| 2026-05-04 17:33 | 24.30326 | 41.93143 | 40900 ft | 537 kts | 111° |
| 2026-05-04 17:34 | 24.26150 | 42.08832 | 40899 ft | 536 kts | 111° |
| 2026-05-04 17:35 | 24.20963 | 42.28408 | 40903 ft | 536 kts | 111° |
| 2026-05-04 17:36 | 24.18877 | 42.36261 | 40907 ft | 536 kts | 111° |
| 2026-05-04 17:36 | 24.16797 | 42.44074 | 40913 ft | 535 kts | 111° |
| 2026-05-04 17:37 | 24.14706 | 42.51908 | 40911 ft | 535 kts | 111° |
| 2026-05-04 17:37 | 24.12620 | 42.59706 | 40911 ft | 535 kts | 111° |
| 2026-05-04 17:38 | 24.10531 | 42.67497 | 40917 ft | 535 kts | 111° |
| 2026-05-04 17:38 | 24.08425 | 42.75333 | 40921 ft | 534 kts | 111° |
| 2026-05-04 17:39 | 24.05281 | 42.87005 | 40921 ft | 534 kts | 111° |
| 2026-05-04 17:39 | 24.03188 | 42.94773 | 40922 ft | 534 kts | 111° |
| 2026-05-04 17:40 | 24.01068 | 43.02592 | 40915 ft | 533 kts | 112° |
| 2026-05-04 17:40 | 23.98959 | 43.10349 | 40917 ft | 533 kts | 112° |
| 2026-05-04 17:41 | 23.96840 | 43.18133 | 40914 ft | 533 kts | 112° |
| 2026-05-04 17:41 | 23.94735 | 43.25853 | 40917 ft | 532 kts | 112° |
| 2026-05-04 17:42 | 23.92622 | 43.33588 | 40918 ft | 532 kts | 112° |
| 2026-05-04 17:42 | 23.90497 | 43.41351 | 40914 ft | 531 kts | 112° |
| 2026-05-04 17:43 | 23.88369 | 43.49104 | 40918 ft | 531 kts | 112° |
| 2026-05-04 17:43 | 23.86252 | 43.56803 | 40905 ft | 531 kts | 112° |
| 2026-05-04 17:44 | 23.84132 | 43.64496 | 40905 ft | 531 kts | 112° |
| 2026-05-04 17:44 | 23.81994 | 43.72238 | 40894 ft | 530 kts | 112° |
| 2026-05-04 17:45 | 23.79870 | 43.79913 | 40890 ft | 530 kts | 112° |
| 2026-05-04 17:45 | 23.77814 | 43.87615 | 40876 ft | 532 kts | 107° |
| 2026-05-04 17:46 | 23.76844 | 43.95692 | 40884 ft | 536 kts | 99° |
| 2026-05-04 17:46 | 23.76231 | 44.03791 | 40877 ft | 537 kts | 98° |
| 2026-05-04 17:47 | 23.75661 | 44.11918 | 40876 ft | 536 kts | 98° |
| 2026-05-04 17:47 | 23.75073 | 44.20004 | 40884 ft | 536 kts | 98° |
| 2026-05-04 17:48 | 23.74462 | 44.28126 | 40882 ft | 535 kts | 98° |
| 2026-05-04 17:48 | 23.73847 | 44.36174 | 40887 ft | 535 kts | 99° |
| 2026-05-04 17:49 | 23.73224 | 44.44283 | 40887 ft | 534 kts | 99° |
| 2026-05-04 17:49 | 23.72599 | 44.52370 | 40889 ft | 534 kts | 99° |
| 2026-05-04 17:50 | 23.71975 | 44.60395 | 40888 ft | 534 kts | 99° |
| 2026-05-04 17:50 | 23.71342 | 44.68473 | 40883 ft | 533 kts | 99° |
| 2026-05-04 17:51 | 23.70811 | 44.75214 | 40882 ft | 533 kts | 99° |
| 2026-05-04 17:51 | 23.70069 | 44.84569 | 40886 ft | 533 kts | 99° |
| 2026-05-04 17:52 | 23.69536 | 44.91283 | 40885 ft | 533 kts | 98° |
| 2026-05-04 17:52 | 23.68887 | 44.99377 | 40881 ft | 532 kts | 99° |
| 2026-05-04 17:53 | 23.68235 | 45.07400 | 40882 ft | 532 kts | 99° |
| 2026-05-04 17:53 | 23.67581 | 45.15412 | 40876 ft | 532 kts | 99° |
| 2026-05-04 17:54 | 23.66923 | 45.23460 | 40875 ft | 531 kts | 99° |
| 2026-05-04 17:54 | 23.66265 | 45.31478 | 40875 ft | 531 kts | 99° |
| 2026-05-04 17:55 | 23.65599 | 45.39478 | 40867 ft | 530 kts | 99° |
| 2026-05-04 17:55 | 23.64930 | 45.47478 | 40867 ft | 530 kts | 99° |
| 2026-05-04 17:56 | 23.64256 | 45.55494 | 40860 ft | 529 kts | 99° |
| 2026-05-04 17:56 | 23.63582 | 45.63469 | 40853 ft | 529 kts | 99° |
| 2026-05-04 17:57 | 23.62906 | 45.71476 | 40853 ft | 528 kts | 99° |
| 2026-05-04 17:57 | 23.62222 | 45.79418 | 40851 ft | 528 kts | 99° |
| 2026-05-04 17:58 | 23.61531 | 45.87409 | 40853 ft | 528 kts | 99° |
| 2026-05-04 17:58 | 23.60840 | 45.95375 | 40859 ft | 528 kts | 99° |
| 2026-05-04 17:59 | 23.60147 | 46.03323 | 40858 ft | 528 kts | 99° |
| 2026-05-04 18:00 | 23.59094 | 46.15302 | 40871 ft | 527 kts | 99° |
| 2026-05-04 18:00 | 23.58394 | 46.23227 | 40867 ft | 527 kts | 99° |
| 2026-05-04 18:01 | 23.57684 | 46.31193 | 40868 ft | 526 kts | 99° |
| 2026-05-04 18:01 | 23.56976 | 46.39095 | 40874 ft | 526 kts | 99° |
| 2026-05-04 18:02 | 23.55904 | 46.50986 | 40880 ft | 525 kts | 99° |
| 2026-05-04 18:02 | 23.55183 | 46.58917 | 40871 ft | 525 kts | 99° |
| 2026-05-04 18:03 | 23.54458 | 46.66850 | 40862 ft | 525 kts | 99° |
| 2026-05-04 18:03 | 23.53732 | 46.74759 | 40855 ft | 525 kts | 99° |
| 2026-05-04 18:04 | 23.53004 | 46.82633 | 40854 ft | 524 kts | 99° |
| 2026-05-04 18:05 | 23.51900 | 46.94485 | 40843 ft | 524 kts | 99° |
| 2026-05-04 18:05 | 23.51163 | 47.02358 | 40843 ft | 524 kts | 99° |
| 2026-05-04 18:06 | 23.50043 | 47.14220 | 40837 ft | 524 kts | 99° |
| 2026-05-04 18:06 | 23.49297 | 47.22083 | 40831 ft | 524 kts | 99° |
| 2026-05-04 18:07 | 23.48542 | 47.29980 | 40832 ft | 524 kts | 99° |
| 2026-05-04 18:07 | 23.47782 | 47.37902 | 40826 ft | 523 kts | 99° |
| 2026-05-04 18:08 | 23.47024 | 47.45748 | 40824 ft | 523 kts | 99° |
| 2026-05-04 18:08 | 23.46258 | 47.53656 | 40818 ft | 523 kts | 99° |
| 2026-05-04 18:09 | 23.44722 | 47.69366 | 40813 ft | 523 kts | 99° |
| 2026-05-04 18:10 | 23.43942 | 47.77271 | 40810 ft | 523 kts | 99° |
| 2026-05-04 18:10 | 23.43165 | 47.85124 | 40806 ft | 523 kts | 99° |
| 2026-05-04 18:11 | 23.42380 | 47.93010 | 40800 ft | 523 kts | 99° |
| 2026-05-04 18:11 | 23.41594 | 48.00862 | 40798 ft | 523 kts | 99° |
| 2026-05-04 18:12 | 23.40804 | 48.08713 | 40795 ft | 523 kts | 99° |
| 2026-05-04 18:12 | 23.40006 | 48.16606 | 40791 ft | 524 kts | 99° |
| 2026-05-04 18:13 | 23.39204 | 48.24505 | 40785 ft | 524 kts | 99° |
| 2026-05-04 18:14 | 23.38010 | 48.36316 | 40786 ft | 524 kts | 98° |
| 2026-05-04 18:14 | 23.37629 | 48.44272 | 40786 ft | 526 kts | 94° |
| 2026-05-04 18:15 | 23.37169 | 48.60184 | 40782 ft | 526 kts | 95° |
| 2026-05-04 18:16 | 23.36853 | 48.68105 | 40785 ft | 526 kts | 95° |
| 2026-05-04 18:16 | 23.36515 | 48.76038 | 40782 ft | 526 kts | 96° |
| 2026-05-04 18:17 | 23.36003 | 48.87954 | 40784 ft | 526 kts | 96° |
| 2026-05-04 18:18 | 23.35487 | 48.99864 | 40783 ft | 526 kts | 96° |
| 2026-05-04 18:18 | 23.34959 | 49.07818 | 40782 ft | 524 kts | 101° |
| 2026-05-04 18:19 | 23.33358 | 49.19542 | 40779 ft | 523 kts | 102° |
| 2026-05-04 18:19 | 23.32221 | 49.27327 | 40781 ft | 523 kts | 102° |
| 2026-05-04 18:20 | 23.31082 | 49.35148 | 40780 ft | 523 kts | 102° |
| 2026-05-04 18:20 | 23.29952 | 49.42937 | 40778 ft | 522 kts | 102° |
| 2026-05-04 18:21 | 23.28815 | 49.50767 | 40782 ft | 522 kts | 102° |
| 2026-05-04 18:21 | 23.27684 | 49.58528 | 40789 ft | 521 kts | 102° |
| 2026-05-04 18:22 | 23.26542 | 49.66331 | 40788 ft | 521 kts | 102° |
| 2026-05-04 18:22 | 23.25402 | 49.74092 | 40792 ft | 520 kts | 102° |
| 2026-05-04 18:23 | 23.24259 | 49.81847 | 40789 ft | 520 kts | 102° |
| 2026-05-04 18:23 | 23.23108 | 49.89628 | 40791 ft | 520 kts | 102° |
| 2026-05-04 18:24 | 23.21954 | 49.97403 | 40795 ft | 520 kts | 102° |
| 2026-05-04 18:24 | 23.20801 | 50.05140 | 40795 ft | 520 kts | 102° |
| 2026-05-04 18:25 | 23.19647 | 50.12862 | 40792 ft | 520 kts | 102° |
| 2026-05-04 18:25 | 23.18480 | 50.20644 | 40796 ft | 520 kts | 102° |
| 2026-05-04 18:26 | 23.17317 | 50.28368 | 40797 ft | 520 kts | 102° |
| 2026-05-04 18:26 | 23.16143 | 50.36145 | 40794 ft | 520 kts | 102° |
| 2026-05-04 18:27 | 23.14968 | 50.43899 | 40794 ft | 520 kts | 102° |
| 2026-05-04 18:27 | 23.13792 | 50.51633 | 40791 ft | 520 kts | 102° |
| 2026-05-04 18:28 | 23.12608 | 50.59399 | 40792 ft | 520 kts | 102° |
| 2026-05-04 18:28 | 23.11420 | 50.67157 | 40790 ft | 520 kts | 102° |
| 2026-05-04 18:29 | 23.10237 | 50.74863 | 40787 ft | 519 kts | 102° |
| 2026-05-04 18:29 | 23.09041 | 50.82622 | 40787 ft | 519 kts | 102° |
| 2026-05-04 18:30 | 23.07250 | 50.94197 | 40789 ft | 519 kts | 102° |
| 2026-05-04 18:31 | 23.06046 | 51.01941 | 40788 ft | 519 kts | 102° |
| 2026-05-04 18:31 | 23.04847 | 51.09636 | 40789 ft | 519 kts | 102° |
| 2026-05-04 18:32 | 23.03636 | 51.17380 | 40788 ft | 519 kts | 102° |
| 2026-05-04 18:32 | 23.02426 | 51.25089 | 40790 ft | 519 kts | 102° |
| 2026-05-04 18:33 | 23.01208 | 51.32823 | 40785 ft | 519 kts | 102° |
| 2026-05-04 18:33 | 22.99988 | 51.40549 | 40787 ft | 519 kts | 102° |
| 2026-05-04 18:34 | 22.98773 | 51.48219 | 40786 ft | 518 kts | 102° |
| 2026-05-04 18:34 | 22.97546 | 51.55935 | 40784 ft | 518 kts | 102° |
| 2026-05-04 18:35 | 22.96313 | 51.63664 | 40783 ft | 517 kts | 102° |
| 2026-05-04 18:35 | 22.95089 | 51.71316 | 40787 ft | 517 kts | 102° |
| 2026-05-04 18:36 | 22.93859 | 51.78978 | 40782 ft | 517 kts | 102° |
| 2026-05-04 18:36 | 22.92618 | 51.86686 | 40785 ft | 516 kts | 102° |
| 2026-05-04 18:37 | 22.91587 | 51.93069 | 40784 ft | 516 kts | 102° |
| 2026-05-04 18:37 | 22.90341 | 52.00765 | 40785 ft | 516 kts | 102° |
| 2026-05-04 18:38 | 22.89097 | 52.08416 | 40785 ft | 516 kts | 102° |
| 2026-05-04 18:38 | 22.87853 | 52.16051 | 40784 ft | 516 kts | 102° |
| 2026-05-04 18:39 | 22.86605 | 52.23687 | 40781 ft | 516 kts | 102° |
| 2026-05-04 18:39 | 22.85342 | 52.31390 | 40781 ft | 515 kts | 102° |
| 2026-05-04 18:40 | 22.84087 | 52.39021 | 40780 ft | 515 kts | 102° |
| 2026-05-04 18:40 | 22.82835 | 52.46640 | 40780 ft | 515 kts | 102° |
| 2026-05-04 18:41 | 22.82293 | 52.54379 | 40782 ft | 517 kts | 94° |
| 2026-05-04 18:41 | 22.82072 | 52.62199 | 40781 ft | 517 kts | 93° |
| 2026-05-04 18:42 | 22.81895 | 52.69969 | 40782 ft | 517 kts | 93° |
| 2026-05-04 18:42 | 22.81703 | 52.77792 | 40780 ft | 517 kts | 93° |
| 2026-05-04 18:43 | 22.81496 | 52.85599 | 40777 ft | 517 kts | 93° |
| 2026-05-04 18:43 | 22.81283 | 52.93367 | 40776 ft | 517 kts | 93° |
| 2026-05-04 18:44 | 22.81066 | 53.01140 | 40776 ft | 517 kts | 93° |
| 2026-05-04 18:44 | 22.80844 | 53.08941 | 40771 ft | 517 kts | 93° |
| 2026-05-04 18:45 | 22.80620 | 53.16742 | 40773 ft | 517 kts | 93° |
| 2026-05-04 18:45 | 22.80392 | 53.24511 | 40775 ft | 517 kts | 93° |
| 2026-05-04 18:46 | 22.80161 | 53.32279 | 40771 ft | 516 kts | 93° |
| 2026-05-04 18:46 | 22.79926 | 53.40042 | 40772 ft | 516 kts | 93° |
| 2026-05-04 18:47 | 22.79686 | 53.47841 | 40772 ft | 516 kts | 93° |
| 2026-05-04 18:47 | 22.79444 | 53.55580 | 40771 ft | 516 kts | 93° |
| 2026-05-04 18:48 | 22.79196 | 53.63375 | 40770 ft | 516 kts | 93° |
| 2026-05-04 18:48 | 22.78948 | 53.71115 | 40768 ft | 516 kts | 93° |
| 2026-05-04 18:49 | 22.79506 | 53.78860 | 40766 ft | 518 kts | 77° |
| 2026-05-04 18:49 | 22.80609 | 53.82567 | 40769 ft | 517 kts | 66° |
| 2026-05-04 18:49 | 22.82265 | 53.86028 | 40769 ft | 517 kts | 58° |
| 2026-05-04 18:50 | 22.86250 | 53.92545 | 40769 ft | 517 kts | 53° |
| 2026-05-04 18:50 | 22.90429 | 53.98849 | 40767 ft | 518 kts | 53° |
| 2026-05-04 18:51 | 22.94618 | 54.05232 | 40767 ft | 518 kts | 54° |
| 2026-05-04 18:51 | 22.98744 | 54.11634 | 40764 ft | 518 kts | 54° |
| 2026-05-04 18:52 | 23.02863 | 54.18076 | 40765 ft | 519 kts | 54° |
| 2026-05-04 18:52 | 23.06965 | 54.24501 | 40764 ft | 519 kts | 54° |
| 2026-05-04 18:53 | 23.11100 | 54.30981 | 40766 ft | 519 kts | 54° |
| 2026-05-04 18:53 | 23.15197 | 54.37407 | 40766 ft | 519 kts | 54° |
| 2026-05-04 18:54 | 23.19310 | 54.43866 | 40765 ft | 520 kts | 54° |
| 2026-05-04 18:54 | 23.23425 | 54.50336 | 40760 ft | 520 kts | 54° |
| 2026-05-04 18:55 | 23.27534 | 54.56804 | 40763 ft | 520 kts | 54° |
| 2026-05-04 18:55 | 23.34190 | 54.66045 | 40761 ft | 519 kts | 49° |
| 2026-05-04 18:56 | 23.38883 | 54.72075 | 40762 ft | 519 kts | 48° |
| 2026-05-04 18:56 | 23.43540 | 54.78060 | 40762 ft | 519 kts | 48° |
| 2026-05-04 18:57 | 23.47728 | 54.83478 | 40764 ft | 520 kts | 48° |
| 2026-05-04 18:57 | 23.52384 | 54.89528 | 40765 ft | 520 kts | 49° |
| 2026-05-04 18:58 | 23.57009 | 54.95548 | 40767 ft | 520 kts | 49° |
| 2026-05-04 18:58 | 23.61667 | 55.01617 | 40766 ft | 520 kts | 48° |
| 2026-05-04 18:59 | 23.66284 | 55.07639 | 40774 ft | 520 kts | 48° |
| 2026-05-04 18:59 | 23.70913 | 55.13685 | 40492 ft | 514 kts | 48° |
| 2026-05-04 19:00 | 23.73217 | 55.16698 | 40254 ft | 518 kts | 48° |
| 2026-05-04 19:00 | 23.75538 | 55.19732 | 40019 ft | 521 kts | 48° |
| 2026-05-04 19:00 | 23.77836 | 55.22739 | 39785 ft | 523 kts | 48° |
| 2026-05-04 19:00 | 23.80176 | 55.25801 | 39559 ft | 523 kts | 48° |
| 2026-05-04 19:01 | 23.82492 | 55.28837 | 39324 ft | 523 kts | 48° |
| 2026-05-04 19:01 | 23.84821 | 55.31891 | 38805 ft | 522 kts | 47° |
| 2026-05-04 19:01 | 23.87151 | 55.34948 | 38082 ft | 524 kts | 47° |
| 2026-05-04 19:01 | 23.89470 | 55.37990 | 37348 ft | 525 kts | 47° |
| 2026-05-04 19:02 | 23.91814 | 55.41067 | 36634 ft | 526 kts | 47° |
| 2026-05-04 19:02 | 23.94160 | 55.44148 | 35917 ft | 526 kts | 47° |
| 2026-05-04 19:02 | 23.96517 | 55.47247 | 35154 ft | 528 kts | 47° |
| 2026-05-04 19:02 | 23.98872 | 55.50332 | 34455 ft | 528 kts | 47° |
| 2026-05-04 19:03 | 24.01379 | 55.53179 | 33764 ft | 524 kts | 39° |
| 2026-05-04 19:03 | 24.04270 | 55.55653 | 32819 ft | 522 kts | 30° |
| 2026-05-04 19:03 | 24.07399 | 55.57540 | 31853 ft | 520 kts | 20° |
| 2026-05-04 19:03 | 24.10827 | 55.58833 | 30884 ft | 518 kts | 11° |
| 2026-05-04 19:04 | 24.14324 | 55.59781 | 30024 ft | 518 kts | 9° |
| 2026-05-04 19:04 | 24.17867 | 55.60696 | 28952 ft | 520 kts | 9° |
| 2026-05-04 19:04 | 24.21352 | 55.61598 | 28053 ft | 519 kts | 10° |
| 2026-05-04 19:04 | 24.24855 | 55.62513 | 27274 ft | 515 kts | 10° |
| 2026-05-04 19:05 | 24.28327 | 55.63424 | 26541 ft | 510 kts | 10° |
| 2026-05-04 19:05 | 24.31773 | 55.64330 | 25857 ft | 505 kts | 10° |
| 2026-05-04 19:05 | 24.35127 | 55.65212 | 25142 ft | 500 kts | 11° |
| 2026-05-04 19:05 | 24.38503 | 55.66101 | 24426 ft | 497 kts | 11° |
| 2026-05-04 19:06 | 24.41785 | 55.67266 | 23722 ft | 497 kts | 22° |
| 2026-05-04 19:06 | 24.44744 | 55.69301 | 22989 ft | 497 kts | 38° |
| 2026-05-04 19:06 | 24.47258 | 55.71788 | 22173 ft | 474 kts | 37° |
| 2026-05-04 19:06 | 24.50004 | 55.73575 | 21838 ft | 459 kts | 20° |
| 2026-05-04 19:07 | 24.52939 | 55.74804 | 21698 ft | 440 kts | 16° |
| 2026-05-04 19:07 | 24.55862 | 55.75646 | 20940 ft | 435 kts | 9° |
| 2026-05-04 19:07 | 24.58867 | 55.76239 | 19963 ft | 440 kts | 7° |
| 2026-05-04 19:07 | 24.61867 | 55.76779 | 19353 ft | 427 kts | 9° |
| 2026-05-04 19:08 | 24.64572 | 55.77849 | 18797 ft | 404 kts | 27° |
| 2026-05-04 19:08 | 24.66738 | 55.79688 | 18171 ft | 387 kts | 46° |
| 2026-05-04 19:08 | 24.68239 | 55.82076 | 17483 ft | 373 kts | 60° |
| 2026-05-04 19:08 | 24.69401 | 55.84561 | 16769 ft | 359 kts | 62° |
| 2026-05-04 19:09 | 24.70487 | 55.86984 | 16050 ft | 348 kts | 62° |
| 2026-05-04 19:09 | 24.71533 | 55.89327 | 15334 ft | 339 kts | 62° |
| 2026-05-04 19:09 | 24.72559 | 55.91625 | 14645 ft | 330 kts | 62° |
| 2026-05-04 19:09 | 24.73580 | 55.93853 | 13955 ft | 322 kts | 59° |
| 2026-05-04 19:10 | 24.74870 | 55.95821 | 13238 ft | 314 kts | 45° |
| 2026-05-04 19:10 | 24.76563 | 55.97280 | 12495 ft | 307 kts | 26° |
| 2026-05-04 19:10 | 24.78570 | 55.97988 | 11752 ft | 301 kts | 5° |
| 2026-05-04 19:10 | 24.80606 | 55.97735 | 11235 ft | 296 kts | 341° |
| 2026-05-04 19:11 | 24.82414 | 55.96653 | 10751 ft | 298 kts | 325° |
| 2026-05-04 19:11 | 24.84074 | 55.95287 | 10418 ft | 295 kts | 323° |
| 2026-05-04 19:11 | 24.85654 | 55.93956 | 10018 ft | 295 kts | 323° |
| 2026-05-04 19:11 | 24.87289 | 55.92592 | 9628 ft | 293 kts | 324° |
| 2026-05-04 19:12 | 24.88908 | 55.91249 | 9273 ft | 290 kts | 324° |
| 2026-05-04 19:12 | 24.92115 | 55.88602 | 8595 ft | 286 kts | 324° |
| 2026-05-04 19:12 | 24.93685 | 55.87309 | 8269 ft | 285 kts | 324° |
| 2026-05-04 19:13 | 24.95271 | 55.86004 | 7939 ft | 284 kts | 324° |
| 2026-05-04 19:13 | 24.96854 | 55.84701 | 7609 ft | 283 kts | 324° |
| 2026-05-04 19:13 | 24.98425 | 55.83407 | 7280 ft | 281 kts | 324° |
| 2026-05-04 19:13 | 24.99874 | 55.81968 | 6948 ft | 281 kts | 310° |
| 2026-05-04 19:14 | 25.00981 | 55.80198 | 6618 ft | 281 kts | 303° |
| 2026-05-04 19:14 | 25.01985 | 55.78373 | 6293 ft | 279 kts | 302° |
| 2026-05-04 19:14 | 25.03011 | 55.76573 | 5958 ft | 278 kts | 305° |
| 2026-05-04 19:14 | 25.04073 | 55.74789 | 5621 ft | 277 kts | 303° |
| 2026-05-04 19:15 | 25.05063 | 55.72971 | 5395 ft | 274 kts | 302° |
| 2026-05-04 19:15 | 25.06001 | 55.71233 | 5369 ft | 259 kts | 303° |
| 2026-05-04 19:15 | 25.06917 | 55.69595 | 5352 ft | 243 kts | 303° |
| 2026-05-04 19:15 | 25.07742 | 55.68119 | 5340 ft | 230 kts | 303° |
| 2026-05-04 19:16 | 25.08544 | 55.66670 | 5311 ft | 219 kts | 303° |
| 2026-05-04 19:16 | 25.09322 | 55.65264 | 5196 ft | 211 kts | 303° |
| 2026-05-04 19:16 | 25.10082 | 55.63894 | 4986 ft | 207 kts | 303° |
| 2026-05-04 19:16 | 25.10822 | 55.62558 | 4726 ft | 203 kts | 303° |
| 2026-05-04 19:17 | 25.11561 | 55.61225 | 4399 ft | 204 kts | 303° |
| 2026-05-04 19:17 | 25.12297 | 55.59895 | 4097 ft | 203 kts | 303° |
| 2026-05-04 19:17 | 25.13031 | 55.58570 | 3799 ft | 201 kts | 303° |
| 2026-05-04 19:17 | 25.13754 | 55.57263 | 3555 ft | 198 kts | 302° |
| 2026-05-04 19:18 | 25.14472 | 55.55967 | 3306 ft | 197 kts | 302° |
| 2026-05-04 19:18 | 25.15184 | 55.54680 | 3058 ft | 196 kts | 302° |
| 2026-05-04 19:18 | 25.15894 | 55.53398 | 2811 ft | 195 kts | 302° |
| 2026-05-04 19:18 | 25.16600 | 55.52121 | 2571 ft | 194 kts | 302° |
| 2026-05-04 19:19 | 25.17291 | 55.50873 | 2322 ft | 186 kts | 302° |
| 2026-05-04 19:19 | 25.17960 | 55.49663 | 2083 ft | 181 kts | 302° |
| 2026-05-04 19:19 | 25.18605 | 55.48498 | 1869 ft | 175 kts | 302° |
| 2026-05-04 19:19 | 25.19228 | 55.47371 | 1658 ft | 169 kts | 302° |
| 2026-05-04 19:20 | 25.19824 | 55.46294 | 1426 ft | 160 kts | 302° |
| 2026-05-04 19:20 | 25.20386 | 55.45278 | 1238 ft | 150 kts | 302° |
| 2026-05-04 19:20 | 25.20910 | 55.44330 | 1049 ft | 140 kts | 302° |
| 2026-05-04 19:20 | 25.21412 | 55.43423 | 890 ft | 138 kts | 301° |
| 2026-05-04 19:21 | 25.21915 | 55.42514 | 702 ft | 139 kts | 300° |
| 2026-05-04 19:21 | 25.22408 | 55.41606 | 503 ft | 140 kts | 299° |
| 2026-05-04 19:21 | 25.22917 | 55.40681 | 314 ft | 142 kts | 301° |
| 2026-05-04 19:21 | 25.23435 | 55.39758 | 130 ft | 141 kts | 300° |
| 2026-05-04 19:22 | 25.23948 | 55.38841 | 38 ft | 135 kts | 300° |
| 2026-05-04 19:22 | 25.24376 | 55.38068 | 37 ft | 100 kts | 302° |
| 2026-05-04 19:22 | 25.24680 | 55.37525 | 34 ft | 65 kts | 301° |
| 2026-05-04 19:22 | 25.24860 | 55.37200 | 36 ft | 42 kts | 301° |
| 2026-05-04 19:23 | 25.24999 | 55.36923 | 36 ft | 40 kts | 286° |
| 2026-05-04 19:23 | 25.25025 | 55.36681 | 31 ft | 16 kts | 272° |
| 2026-05-04 19:23 | 25.25019 | 55.36574 | 29 ft | 13 kts | 237° |
| 2026-05-04 19:23 | 25.24941 | 55.36584 | 28 ft | 13 kts | 139° |
| 2026-05-04 19:24 | 25.24891 | 55.36680 | 28 ft | 16 kts | 112° |
| 2026-05-04 19:24 | 25.24861 | 55.36802 | 29 ft | 17 kts | 103° |
| 2026-05-04 19:24 | 25.24811 | 55.36931 | 29 ft | 19 kts | 123° |
| 2026-05-04 19:24 | 25.24739 | 55.37059 | 30 ft | 21 kts | 121° |
| 2026-05-04 19:25 | 25.24659 | 55.37201 | 29 ft | 23 kts | 122° |
| 2026-05-04 19:25 | 25.24573 | 55.37356 | 29 ft | 25 kts | 121° |
| 2026-05-04 19:25 | 25.24478 | 55.37522 | 29 ft | 26 kts | 122° |
| 2026-05-04 19:25 | 25.24380 | 55.37698 | 29 ft | 27 kts | 121° |
| 2026-05-04 19:26 | 25.24266 | 55.37780 | 28 ft | 20 kts | 205° |
| 2026-05-04 19:26 | 25.24146 | 55.37691 | 27 ft | 20 kts | 211° |
| 2026-05-04 19:26 | 25.24109 | 55.37618 | 27 ft | 10 kts | 282° |
| 2026-05-04 19:26 | 25.24126 | 55.37579 | 27 ft | 0 kts | 303° |
| 2026-05-04 19:27 | 25.24134 | 55.37565 | 27 ft | 2 kts | 302° |
| 2026-05-04 19:27 | 25.24137 | 55.37560 | 27 ft | 0 kts | 302° |